Time;durP1;ratioP1;P1;durP2;ratioP2;P2;SDS_P1;SDS_P2;PMS_P1;PMS_P2;Temp;Humidity;BMP_temperature;BMP_pressure;BME280_temperature;BME280_humidity;BME280_pressure;Samples;Min_cycle;Max_cycle;Signal;HPM_P1;HPM_P2
2022/06/30 00:02:23;;;;;;;9.50;9.20;;;20.80;99.90;;;;;;5059853;28;20255;-82
2022/06/30 00:04:58;;;;;;;9.30;9.00;;;20.80;99.90;;;;;;5059897;28;20301;-80
2022/06/30 00:07:25;;;;;;;9.60;9.30;;;20.80;99.90;;;;;;5060207;28;20230;-80
2022/06/30 00:09:53;;;;;;;9.35;9.05;;;20.80;99.90;;;;;;5059729;28;20249;-80
2022/06/30 00:12:26;;;;;;;9.30;9.00;;;20.70;99.90;;;;;;5060152;28;20318;-80
2022/06/30 00:14:57;;;;;;;9.32;9.02;;;20.70;99.90;;;;;;5060053;28;20246;-80
2022/06/30 00:17:24;;;;;;;9.40;9.10;;;20.60;99.90;;;;;;5060759;28;20302;-80
2022/06/30 00:19:53;;;;;;;9.70;9.40;;;20.60;99.90;;;;;;5060131;28;20328;-80
2022/06/30 00:22:21;;;;;;;9.43;9.13;;;20.60;99.90;;;;;;5059927;28;20234;-80
2022/06/30 00:24:48;;;;;;;9.20;8.90;;;20.60;99.90;;;;;;5059777;28;20570;-80
2022/06/30 00:27:19;;;;;;;9.00;8.80;;;20.50;99.90;;;;;;5060457;28;20230;-81
2022/06/30 00:29:47;;;;;;;9.30;9.00;;;20.50;99.90;;;;;;5064337;28;20239;-81
2022/06/30 00:32:14;;;;;;;9.05;8.77;;;20.40;99.90;;;;;;5062427;28;20650;-81
2022/06/30 00:34:42;;;;;;;9.30;9.00;;;20.40;99.90;;;;;;5062244;28;20295;-81
2022/06/30 00:37:11;;;;;;;9.40;9.10;;;20.40;99.90;;;;;;5061558;28;20254;-81
2022/06/30 00:39:38;;;;;;;8.90;8.70;;;20.40;99.90;;;;;;5061247;28;20238;-81
2022/06/30 00:42:07;;;;;;;9.35;9.05;;;20.40;99.90;;;;;;5061318;28;20234;-81
2022/06/30 00:44:34;;;;;;;9.00;8.80;;;20.30;99.90;;;;;;5061058;28;20223;-81
2022/06/30 00:47:05;;;;;;;9.50;9.20;;;20.30;99.90;;;;;;5061521;28;20294;-81
2022/06/30 00:49:33;;;;;;;9.15;8.85;;;20.30;99.90;;;;;;5059684;28;20235;-81
2022/06/30 00:52:03;;;;;;;9.15;8.85;;;20.20;99.90;;;;;;5061101;28;20282;-81
2022/06/30 00:54:35;;;;;;;9.30;9.00;;;20.20;99.90;;;;;;5060381;28;20231;-81
2022/06/30 00:57:05;;;;;;;9.30;9.00;;;20.20;99.90;;;;;;5060935;28;20235;-81
2022/06/30 00:59:34;;;;;;;9.52;9.23;;;20.10;99.90;;;;;;5060209;28;20254;-81
2022/06/30 01:02:03;;;;;;;9.90;9.60;;;20.10;99.90;;;;;;5060805;28;20235;-81
2022/06/30 01:04:34;;;;;;;9.80;9.50;;;20.10;99.90;;;;;;5060579;28;20219;-81
2022/06/30 01:07:03;;;;;;;9.50;9.20;;;20.10;99.90;;;;;;5060337;28;20235;-81
2022/06/30 01:15:03;;;;;;;9.50;9.20;;;20.00;99.90;;;;;;5060120;28;20207;-81
2022/06/30 01:17:31;;;;;;;9.32;9.02;;;20.00;99.90;;;;;;5059343;28;20235;-81
2022/06/30 01:19:59;;;;;;;9.27;8.98;;;20.00;99.90;;;;;;5059872;28;20372;-81
2022/06/30 01:22:31;;;;;;;9.25;8.95;;;20.00;99.90;;;;;;5060042;28;20297;-81
2022/06/30 01:24:58;;;;;;;9.70;9.40;;;20.00;99.90;;;;;;5060939;28;20273;-81
2022/06/30 01:27:26;;;;;;;8.80;8.60;;;19.90;99.90;;;;;;5059490;28;20266;-81
2022/06/30 01:29:53;;;;;;;9.60;9.30;;;19.90;99.90;;;;;;5059800;28;20255;-81
2022/06/30 01:32:21;;;;;;;9.60;9.30;;;19.90;99.90;;;;;;5060546;28;20334;-81
2022/06/30 01:34:56;;;;;;;9.50;9.20;;;19.80;99.90;;;;;;5059497;28;20227;-81
2022/06/30 01:37:24;;;;;;;9.40;9.10;;;19.90;99.90;;;;;;5060061;28;20246;-81
2022/06/30 01:39:54;;;;;;;9.20;8.90;;;19.80;99.90;;;;;;5060250;28;20235;-81
2022/06/30 01:42:21;;;;;;;8.80;8.60;;;19.80;99.90;;;;;;5060044;28;20227;-81
2022/06/30 01:44:49;;;;;;;8.80;8.60;;;19.80;99.90;;;;;;5068074;28;20238;-81
2022/06/30 01:47:16;;;;;;;8.60;8.40;;;19.80;99.90;;;;;;5063165;28;20234;-81
2022/06/30 01:49:44;;;;;;;9.20;8.90;;;19.80;99.90;;;;;;5060424;28;20773;-81
2022/06/30 01:52:11;;;;;;;8.90;8.70;;;19.80;99.90;;;;;;5059331;28;20317;-81
2022/06/30 01:54:39;;;;;;;8.65;8.45;;;19.80;99.90;;;;;;5059429;28;20230;-81
2022/06/30 01:57:08;;;;;;;8.90;8.70;;;19.80;99.90;;;;;;5059240;28;20243;-81
2022/06/30 01:59:35;;;;;;;8.80;8.60;;;19.70;99.90;;;;;;5059876;28;20330;-81
2022/06/30 02:02:03;;;;;;;8.85;8.65;;;19.60;99.90;;;;;;5059652;28;20245;-81
2022/06/30 02:04:50;;;;;;;8.90;8.70;;;19.60;99.90;;;;;;5058989;28;20230;-81
2022/06/30 02:07:19;;;;;;;8.85;8.65;;;19.60;99.90;;;;;;5059461;28;20235;-81
2022/06/30 02:09:47;;;;;;;8.80;8.60;;;19.60;99.90;;;;;;5058967;28;20242;-81
2022/06/30 02:15:01;;;;;;;8.93;8.73;;;19.50;99.90;;;;;;5059663;28;20218;-81
2022/06/30 02:17:28;;;;;;;9.10;8.80;;;19.50;99.90;;;;;;5060065;28;20249;-81
2022/06/30 02:19:56;;;;;;;9.20;8.90;;;19.40;99.90;;;;;;5068364;28;20302;-80
2022/06/30 02:22:23;;;;;;;9.32;9.02;;;19.40;99.90;;;;;;5066320;28;20325;-81
2022/06/30 02:24:51;;;;;;;9.60;9.30;;;19.40;99.90;;;;;;5068483;28;20359;-81
2022/06/30 02:27:23;;;;;;;9.50;9.20;;;19.40;99.90;;;;;;5075021;28;20238;-80
2022/06/30 02:29:51;;;;;;;9.60;9.30;;;19.40;99.90;;;;;;5074239;28;20261;-82
2022/06/30 02:32:18;;;;;;;9.40;9.10;;;19.30;99.90;;;;;;5068537;28;20325;-82
2022/06/30 02:34:46;;;;;;;9.40;9.10;;;19.30;99.90;;;;;;5064629;28;20235;-79
2022/06/30 02:37:14;;;;;;;9.50;9.20;;;19.20;99.90;;;;;;5067875;28;20245;-79
2022/06/30 02:39:41;;;;;;;9.30;9.00;;;19.20;99.90;;;;;;5074088;28;20259;-79
2022/06/30 02:42:09;;;;;;;8.80;8.60;;;19.20;99.90;;;;;;5068374;28;20286;-79
2022/06/30 02:44:38;;;;;;;8.95;8.75;;;19.20;99.90;;;;;;5067612;28;21035;-79
2022/06/30 02:47:05;;;;;;;9.00;8.80;;;19.10;99.90;;;;;;5068496;28;20237;-81
2022/06/30 02:49:33;;;;;;;8.80;8.60;;;19.10;99.90;;;;;;5067711;28;20302;-80
2022/06/30 02:52:00;;;;;;;9.80;9.50;;;19.10;99.90;;;;;;5066579;28;20295;-80
2022/06/30 02:54:28;;;;;;;9.70;9.40;;;19.10;99.90;;;;;;5067227;28;20218;-80
2022/06/30 02:56:55;;;;;;;9.90;9.60;;;19.00;99.90;;;;;;5068586;28;20234;-80
2022/06/30 02:59:22;;;;;;;9.98;9.68;;;19.10;99.90;;;;;;5069194;28;20302;-80
2022/06/30 03:01:51;;;;;;;10.10;9.80;;;19.10;99.90;;;;;;5069006;28;20240;-80
2022/06/30 03:04:21;;;;;;;9.88;9.57;;;19.10;99.90;;;;;;5067041;28;20282;-80
2022/06/30 03:06:49;;;;;;;9.80;9.50;;;19.10;99.90;;;;;;5068193;28;20230;-80
2022/06/30 03:09:16;;;;;;;10.00;9.70;;;19.20;99.90;;;;;;5067286;28;20294;-80
2022/06/30 03:11:44;;;;;;;10.02;9.73;;;19.10;99.90;;;;;;5068390;28;20294;-80
2022/06/30 03:14:11;;;;;;;10.00;9.70;;;19.00;99.90;;;;;;5060918;28;20227;-81
2022/06/30 03:16:39;;;;;;;10.20;9.90;;;19.00;99.90;;;;;;5062036;28;20235;-80
2022/06/30 03:19:08;;;;;;;10.10;9.80;;;18.90;99.90;;;;;;5062075;28;20244;-80
2022/06/30 03:21:35;;;;;;;10.20;9.90;;;18.90;99.90;;;;;;5065229;28;20257;-80
2022/06/30 03:24:03;;;;;;;10.52;10.23;;;18.90;99.90;;;;;;5072330;28;20250;-80
2022/06/30 03:26:30;;;;;;;10.40;10.10;;;18.90;99.90;;;;;;5071187;28;20326;-81
2022/06/30 03:28:58;;;;;;;9.90;9.60;;;18.90;99.90;;;;;;5070462;28;20297;-81
2022/06/30 03:31:25;;;;;;;10.30;10.00;;;18.90;99.90;;;;;;5064516;28;20321;-81
2022/06/30 03:33:53;;;;;;;10.38;10.07;;;18.90;99.90;;;;;;5063556;28;20278;-81
2022/06/30 03:36:22;;;;;;;10.00;9.70;;;18.90;99.90;;;;;;5063251;28;20290;-81
2022/06/30 03:38:49;;;;;;;9.98;9.68;;;18.90;99.90;;;;;;5062582;28;20270;-81
2022/06/30 03:41:17;;;;;;;9.70;9.40;;;18.90;99.90;;;;;;5062641;28;20242;-81
2022/06/30 03:43:45;;;;;;;9.90;9.60;;;19.00;99.90;;;;;;5061830;28;20237;-80
2022/06/30 03:46:12;;;;;;;9.55;9.25;;;19.00;99.90;;;;;;5079553;28;20250;-80
2022/06/30 03:48:41;;;;;;;9.52;9.23;;;19.00;99.90;;;;;;5078762;28;20284;-81
2022/06/30 03:51:11;;;;;;;9.30;9.00;;;19.00;99.90;;;;;;5071725;28;20226;-81
2022/06/30 03:53:40;;;;;;;9.30;9.00;;;19.00;99.90;;;;;;5062020;28;20284;-81
2022/06/30 03:56:08;;;;;;;9.20;8.90;;;19.00;99.90;;;;;;5061609;28;20344;-81
2022/06/30 03:58:35;;;;;;;9.20;8.90;;;19.00;99.90;;;;;;5061524;28;20330;-81
2022/06/30 04:01:03;;;;;;;9.20;8.90;;;19.00;99.90;;;;;;5060884;28;20294;-81
2022/06/30 04:03:31;;;;;;;9.50;9.20;;;19.10;99.90;;;;;;5061477;28;20262;-81
2022/06/30 04:05:58;;;;;;;9.30;9.00;;;19.10;99.90;;;;;;5061719;28;20284;-81
2022/06/30 04:08:26;;;;;;;9.50;9.20;;;19.10;99.90;;;;;;5062165;28;20235;-81
2022/06/30 04:10:55;;;;;;;9.30;9.00;;;19.10;99.90;;;;;;5062156;28;20327;-81
2022/06/30 04:13:22;;;;;;;9.30;9.00;;;19.20;99.90;;;;;;5061183;28;20210;-81
2022/06/30 04:15:50;;;;;;;9.30;9.00;;;19.20;99.90;;;;;;5060769;28;20330;-81
2022/06/30 04:18:17;;;;;;;9.30;9.00;;;19.30;99.90;;;;;;5060954;28;20243;-80
2022/06/30 04:20:45;;;;;;;9.30;9.00;;;19.20;99.90;;;;;;5060575;28;20231;-81
2022/06/30 04:23:12;;;;;;;9.32;9.02;;;19.20;99.90;;;;;;5060109;28;20231;-81
2022/06/30 04:25:41;;;;;;;9.38;9.07;;;19.20;99.90;;;;;;5060312;28;20235;-81
2022/06/30 04:28:10;;;;;;;9.48;9.18;;;19.20;99.90;;;;;;5061150;28;20307;-80
2022/06/30 04:33:23;;;;;;;9.32;9.02;;;19.30;99.90;;;;;;5061479;28;20225;-82
2022/06/30 04:35:50;;;;;;;9.40;9.10;;;19.30;99.90;;;;;;5061237;28;20300;-82
2022/06/30 04:38:18;;;;;;;9.40;9.10;;;19.30;99.90;;;;;;5061061;28;20302;-82
2022/06/30 04:43:31;;;;;;;9.20;8.90;;;19.30;99.90;;;;;;5063682;28;20227;-82
2022/06/30 04:45:59;;;;;;;9.30;9.00;;;19.40;99.90;;;;;;5062529;28;20238;-82
2022/06/30 04:48:26;;;;;;;9.40;9.10;;;19.40;99.90;;;;;;5062141;28;20237;-82
2022/06/30 04:50:54;;;;;;;9.60;9.30;;;19.40;99.90;;;;;;5062473;28;20322;-82
2022/06/30 04:53:21;;;;;;;9.50;9.20;;;19.40;99.90;;;;;;5061793;28;20231;-82
2022/06/30 04:55:49;;;;;;;9.50;9.20;;;19.40;99.90;;;;;;5061572;28;20237;-82
2022/06/30 04:58:16;;;;;;;9.35;9.05;;;19.50;99.90;;;;;;5060935;28;20234;-82
2022/06/30 05:00:45;;;;;;;9.30;9.00;;;19.50;99.90;;;;;;5061055;28;20294;-82
2022/06/30 05:03:13;;;;;;;9.30;9.00;;;19.50;99.90;;;;;;5061321;28;20227;-82
2022/06/30 05:05:40;;;;;;;9.27;8.98;;;19.50;99.90;;;;;;5061176;28;20325;-82
2022/06/30 05:08:08;;;;;;;9.20;8.90;;;19.50;99.90;;;;;;5061052;28;20325;-82
2022/06/30 05:10:35;;;;;;;9.35;9.05;;;19.50;99.90;;;;;;5122584;22;20241;-81
2022/06/30 05:13:03;;;;;;;9.20;8.90;;;19.50;99.90;;;;;;5081650;28;20288;-82
2022/06/30 05:15:30;;;;;;;8.90;8.70;;;19.50;99.90;;;;;;5081534;28;20290;-82
2022/06/30 05:17:59;;;;;;;9.30;9.00;;;19.50;99.90;;;;;;5081670;28;20286;-82
2022/06/30 05:20:27;;;;;;;9.48;9.18;;;19.50;99.90;;;;;;5072655;28;20258;-82
2022/06/30 05:22:55;;;;;;;9.35;9.05;;;19.60;99.90;;;;;;5073494;28;20231;-81
2022/06/30 05:28:08;;;;;;;9.70;9.40;;;19.60;99.90;;;;;;5074964;28;20226;-82
2022/06/30 05:30:36;;;;;;;9.68;9.38;;;19.60;99.90;;;;;;5070729;28;20226;-81
2022/06/30 05:33:05;;;;;;;10.02;9.73;;;19.70;99.90;;;;;;5065730;28;20294;-82
2022/06/30 05:35:32;;;;;;;9.48;9.18;;;19.70;99.90;;;;;;5062128;28;20326;-82
2022/06/30 05:38:00;;;;;;;9.35;9.05;;;19.80;99.90;;;;;;5061194;28;20306;-82
2022/06/30 05:40:28;;;;;;;9.90;9.60;;;19.80;99.90;;;;;;5060828;28;20233;-82
2022/06/30 05:42:56;;;;;;;9.90;9.60;;;19.90;99.90;;;;;;5061463;28;20227;-82
2022/06/30 05:45:24;;;;;;;9.50;9.20;;;20.00;99.90;;;;;;5060973;28;20226;-82
2022/06/30 05:47:53;;;;;;;9.25;8.95;;;20.00;99.90;;;;;;5062062;28;20298;-82
2022/06/30 05:50:23;;;;;;;9.82;9.52;;;20.10;99.90;;;;;;5059594;28;20230;-82
2022/06/30 05:52:51;;;;;;;9.77;9.48;;;20.20;99.90;;;;;;5060630;28;20225;-83
2022/06/30 05:55:19;;;;;;;10.07;9.77;;;20.30;99.90;;;;;;5064079;28;20242;-82
2022/06/30 05:57:52;;;;;;;10.10;9.80;;;20.40;99.90;;;;;;5060780;28;20245;-82
2022/06/30 06:00:21;;;;;;;9.70;9.40;;;20.50;99.90;;;;;;5060996;28;20231;-82
2022/06/30 06:02:48;;;;;;;9.90;9.60;;;20.60;99.90;;;;;;5060685;28;20223;-81
2022/06/30 06:05:16;;;;;;;10.20;9.90;;;20.70;99.90;;;;;;5060406;28;20358;-81
2022/06/30 06:07:45;;;;;;;9.90;9.60;;;20.90;99.90;;;;;;5062938;28;20234;-82
2022/06/30 06:10:14;;;;;;;9.80;9.50;;;21.10;99.90;;;;;;5060522;28;20249;-81
2022/06/30 06:12:43;;;;;;;9.80;9.50;;;21.20;99.90;;;;;;5060639;28;20231;-82
2022/06/30 06:15:12;;;;;;;9.77;9.48;;;21.30;99.90;;;;;;5061014;28;20242;-82
2022/06/30 06:17:44;;;;;;;9.70;9.40;;;21.40;99.90;;;;;;5060808;28;20234;-81
2022/06/30 06:20:13;;;;;;;10.15;9.85;;;21.50;99.90;;;;;;5060475;28;20235;-81
2022/06/30 06:22:41;;;;;;;10.15;9.85;;;21.60;99.90;;;;;;5061055;28;20295;-81
2022/06/30 06:25:11;;;;;;;10.50;10.20;;;21.60;99.90;;;;;;5060707;28;20257;-81
2022/06/30 06:27:39;;;;;;;10.30;10.00;;;21.70;99.90;;;;;;5061054;28;20235;-81
2022/06/30 06:30:10;;;;;;;10.55;10.25;;;21.80;99.90;;;;;;5060094;28;20277;-81
2022/06/30 06:32:38;;;;;;;10.43;10.13;;;22.00;99.90;;;;;;5059766;28;20222;-81
2022/06/30 06:35:07;;;;;;;10.60;10.30;;;22.10;99.90;;;;;;5060822;28;20321;-82
2022/06/30 06:37:34;;;;;;;10.60;10.30;;;22.20;99.90;;;;;;5061096;28;20243;-81
2022/06/30 06:40:02;;;;;;;10.60;10.30;;;22.30;99.90;;;;;;5060382;28;20326;-81
2022/06/30 06:42:31;;;;;;;10.35;10.05;;;22.50;99.90;;;;;;5060901;28;20226;-81
2022/06/30 06:44:58;;;;;;;10.30;10.00;;;22.60;99.90;;;;;;5061207;28;20254;-82
2022/06/30 06:47:26;;;;;;;10.55;10.25;;;22.70;99.90;;;;;;5061971;28;20321;-81
2022/06/30 06:49:53;;;;;;;10.57;10.27;;;22.80;99.90;;;;;;5066109;28;20227;-81
2022/06/30 06:52:21;;;;;;;10.32;10.02;;;22.90;99.90;;;;;;5067493;28;20326;-82
2022/06/30 06:54:48;;;;;;;10.70;10.40;;;23.10;99.90;;;;;;5065901;28;20250;-82
2022/06/30 06:57:16;;;;;;;10.65;10.35;;;23.20;99.90;;;;;;5065652;28;20298;-81
2022/06/30 06:59:45;;;;;;;10.90;10.60;;;23.30;99.90;;;;;;5064983;28;20260;-82
2022/06/30 07:02:12;;;;;;;11.00;10.70;;;23.50;99.90;;;;;;5064704;28;20230;-82
2022/06/30 07:04:40;;;;;;;10.90;10.60;;;23.60;99.90;;;;;;5064347;28;20256;-82
2022/06/30 07:07:07;;;;;;;10.85;10.55;;;23.80;99.90;;;;;;5063807;28;20238;-82
2022/06/30 07:09:35;;;;;;;10.82;10.52;;;24.00;99.90;;;;;;5063801;28;20321;-82
2022/06/30 07:12:03;;;;;;;10.60;10.30;;;24.20;99.90;;;;;;5064140;28;20234;-82
2022/06/30 07:14:30;;;;;;;10.60;10.30;;;24.20;99.90;;;;;;5063647;28;20297;-82
2022/06/30 07:16:59;;;;;;;10.75;10.45;;;24.30;99.90;;;;;;5064348;28;20377;-82
2022/06/30 07:19:27;;;;;;;10.30;10.00;;;24.40;99.90;;;;;;5062909;28;20302;-82
2022/06/30 07:21:54;;;;;;;10.48;10.18;;;24.50;99.90;;;;;;5064142;28;20253;-82
2022/06/30 07:24:22;;;;;;;10.50;10.20;;;24.50;99.90;;;;;;5063192;28;20290;-83
2022/06/30 07:26:49;;;;;;;10.98;10.68;;;24.70;99.90;;;;;;5063612;28;20227;-82
2022/06/30 07:29:17;;;;;;;10.98;10.68;;;24.70;99.90;;;;;;5063678;28;20243;-82
2022/06/30 07:31:45;;;;;;;11.00;10.70;;;24.80;99.90;;;;;;5064048;28;20223;-82
2022/06/30 07:34:14;;;;;;;10.60;10.30;;;24.90;99.90;;;;;;5064192;28;20282;-82
2022/06/30 07:36:42;;;;;;;10.60;10.30;;;25.10;99.90;;;;;;5064326;28;20286;-82
2022/06/30 07:39:10;;;;;;;10.60;10.30;;;25.20;99.90;;;;;;5063518;28;20303;-82
2022/06/30 07:41:38;;;;;;;10.63;10.32;;;25.20;99.90;;;;;;5062776;28;20242;-82
2022/06/30 07:44:06;;;;;;;10.73;10.43;;;25.40;99.90;;;;;;5062910;28;20250;-82
2022/06/30 07:46:33;;;;;;;10.73;10.43;;;25.50;99.90;;;;;;5063063;28;20234;-81
2022/06/30 07:49:01;;;;;;;10.70;10.40;;;25.60;99.90;;;;;;5062328;28;20294;-81
2022/06/30 07:51:30;;;;;;;10.88;10.57;;;25.70;99.90;;;;;;5062820;28;20290;-82
2022/06/30 07:53:58;;;;;;;10.80;10.50;;;25.80;99.90;;;;;;5063238;28;20270;-81
2022/06/30 07:56:25;;;;;;;10.57;10.27;;;25.90;99.90;;;;;;5062415;28;20233;-81
2022/06/30 07:58:53;;;;;;;10.85;10.55;;;26.00;99.90;;;;;;5061758;28;20243;-81
2022/06/30 08:01:21;;;;;;;10.70;10.40;;;26.10;99.90;;;;;;5062683;28;20226;-82
2022/06/30 08:03:49;;;;;;;11.02;10.73;;;26.20;99.90;;;;;;5063143;28;20227;-82
2022/06/30 08:06:17;;;;;;;11.18;10.88;;;26.30;99.90;;;;;;5062657;28;20246;-82
2022/06/30 08:08:46;;;;;;;10.80;10.50;;;26.30;99.90;;;;;;5063154;28;20230;-82
2022/06/30 08:11:13;;;;;;;10.73;10.43;;;26.20;99.90;;;;;;5062317;28;20298;-82
2022/06/30 08:13:41;;;;;;;11.25;10.95;;;26.30;99.90;;;;;;5063362;28;20269;-81
2022/06/30 08:16:08;;;;;;;10.90;10.60;;;26.40;99.90;;;;;;5063024;28;20262;-82
2022/06/30 08:18:36;;;;;;;10.23;9.93;;;26.50;99.90;;;;;;5062601;28;20239;-81
2022/06/30 08:21:04;;;;;;;10.20;9.90;;;26.60;99.90;;;;;;5061879;28;20255;-81
2022/06/30 08:23:32;;;;;;;10.60;10.30;;;26.60;99.90;;;;;;5062505;28;20245;-81
2022/06/30 08:26:01;;;;;;;10.68;10.38;;;26.70;99.90;;;;;;5062465;28;20242;-82
2022/06/30 08:28:28;;;;;;;10.70;10.40;;;26.90;99.90;;;;;;5062199;28;20337;-81
2022/06/30 08:30:56;;;;;;;10.32;10.02;;;27.20;99.90;;;;;;5061428;28;20326;-81
2022/06/30 08:33:23;;;;;;;10.35;10.05;;;27.50;99.90;;;;;;5063223;28;20317;-82
2022/06/30 08:35:51;;;;;;;11.18;10.88;;;27.70;99.90;;;;;;5063539;28;20257;-81
2022/06/30 08:38:19;;;;;;;11.07;10.77;;;27.90;99.90;;;;;;5062607;28;20274;-82
2022/06/30 08:43:37;;;;;;;11.35;11.05;;;28.00;99.90;;;;;;5063513;28;20219;-81
2022/06/30 08:46:04;;;;;;;11.15;10.85;;;28.30;99.90;;;;;;5063159;28;20302;-82
2022/06/30 08:48:32;;;;;;;11.20;10.90;;;28.50;99.90;;;;;;5063620;28;20233;-81
2022/06/30 08:51:05;;;;;;;11.07;10.77;;;28.60;99.90;;;;;;5063647;28;20241;-82
2022/06/30 08:53:39;;;;;;;10.90;10.60;;;28.60;99.90;;;;;;5063946;28;20238;-82
2022/06/30 08:56:07;;;;;;;10.88;10.57;;;28.50;99.90;;;;;;5063198;28;20230;-82
2022/06/30 08:58:41;;;;;;;10.90;10.60;;;28.30;99.90;;;;;;5062591;28;20285;-82
2022/06/30 09:01:08;;;;;;;10.82;10.52;;;28.30;99.90;;;;;;5063261;28;20203;-82
2022/06/30 09:03:36;;;;;;;11.18;10.88;;;28.20;99.90;;;;;;5063569;28;20242;-81
2022/06/30 09:06:05;;;;;;;11.60;11.20;;;28.10;99.90;;;;;;5062648;28;20226;-82
2022/06/30 09:08:33;;;;;;;11.57;11.18;;;28.20;99.90;;;;;;5062128;28;20226;-82
2022/06/30 09:11:01;;;;;;;11.57;11.18;;;28.50;99.90;;;;;;5062092;28;20254;-82
2022/06/30 09:13:42;;;;;;;11.60;11.20;;;28.80;99.90;;;;;;5062815;28;20449;-82
2022/06/30 09:16:10;;;;;;;11.70;11.30;;;29.40;99.90;;;;;;5061766;28;20250;-82
2022/06/30 09:18:40;;;;;;;11.70;11.30;;;29.40;99.90;;;;;;5062732;28;20281;-82
2022/06/30 09:21:17;;;;;;;12.02;11.63;;;30.00;99.90;;;;;;5062586;28;20258;-82
2022/06/30 09:23:46;;;;;;;11.50;11.10;;;30.40;99.90;;;;;;5062960;28;20230;-83
2022/06/30 09:26:20;;;;;;;11.20;10.90;;;30.50;99.90;;;;;;5062977;28;20288;-82
2022/06/30 09:28:51;;;;;;;11.38;11.07;;;30.40;99.90;;;;;;5063432;28;20239;-82
2022/06/30 09:31:34;;;;;;;11.25;10.95;;;30.50;99.90;;;;;;5062404;28;20289;-82
2022/06/30 09:34:16;;;;;;;11.48;11.18;;;30.70;99.90;;;;;;5062560;28;20250;-83
2022/06/30 09:36:45;;;;;;;11.13;10.82;;;31.00;99.90;;;;;;5062195;28;20265;-83
2022/06/30 09:39:15;;;;;;;11.13;10.82;;;31.10;99.90;;;;;;5061739;28;20266;-83
2022/06/30 09:41:44;;;;;;;11.48;11.07;;;31.00;99.90;;;;;;5061791;28;20230;-82
2022/06/30 09:44:23;;;;;;;11.30;11.00;;;30.80;99.90;;;;;;5062404;28;20235;-82
2022/06/30 09:46:59;;;;;;;11.23;10.93;;;30.80;99.90;;;;;;5062596;28;20230;-83
2022/06/30 09:49:32;;;;;;;11.48;11.07;;;30.80;99.90;;;;;;5059983;28;20649;-82
2022/06/30 09:52:00;;;;;;;11.80;11.40;;;31.00;99.90;;;;;;5061818;28;20223;-83
2022/06/30 09:54:28;;;;;;;11.40;11.10;;;31.20;99.90;;;;;;5061741;28;20233;-83
2022/06/30 09:57:04;;;;;;;11.90;11.50;;;31.60;99.90;;;;;;5061543;28;20242;-83
2022/06/30 09:59:34;;;;;;;11.77;11.38;;;31.80;99.90;;;;;;5061961;28;20230;-82
2022/06/30 10:02:07;;;;;;;11.48;11.07;;;31.70;99.90;;;;;;5062514;28;20262;-83
2022/06/30 10:04:54;;;;;;;11.20;10.90;;;31.30;99.90;;;;;;5061214;28;20234;-83
2022/06/30 10:07:22;;;;;;;11.35;11.05;;;31.40;99.90;;;;;;5062344;28;20235;-83
2022/06/30 10:09:51;;;;;;;11.38;11.07;;;31.30;99.90;;;;;;5065428;28;20265;-83
2022/06/30 10:12:20;;;;;;;11.52;11.13;;;31.20;99.90;;;;;;5062948;28;20310;-83
2022/06/30 10:14:52;;;;;;;11.57;11.18;;;31.40;99.90;;;;;;5062905;28;20234;-83
2022/06/30 10:17:23;;;;;;;11.27;10.98;;;31.70;99.90;;;;;;5062663;28;20294;-82
2022/06/30 10:19:52;;;;;;;11.38;11.05;;;32.20;99.90;;;;;;5061015;28;20230;-83
2022/06/30 10:22:22;;;;;;;11.60;11.20;;;32.60;99.90;;;;;;5061903;28;20227;-83
2022/06/30 10:24:51;;;;;;;11.65;11.25;;;33.20;99.90;;;;;;5062279;28;20305;-82
2022/06/30 10:27:20;;;;;;;11.85;11.45;;;33.40;99.90;;;;;;5063783;28;20322;-83
2022/06/30 10:29:55;;;;;;;11.90;11.50;;;34.10;99.90;;;;;;5064430;28;20291;-83
2022/06/30 10:32:47;;;;;;;11.90;11.50;;;34.50;99.90;;;;;;5064323;28;20214;-83
2022/06/30 10:35:30;;;;;;;11.90;11.50;;;34.80;99.90;;;;;;5063061;28;20231;-83
2022/06/30 10:38:05;;;;;;;11.60;11.20;;;34.70;99.90;;;;;;5064180;28;20235;-83
2022/06/30 10:40:48;;;;;;;11.20;10.90;;;34.60;99.90;;;;;;5061155;28;20242;-82
2022/06/30 10:43:18;;;;;;;11.20;10.90;;;34.70;99.90;;;;;;5060973;28;20330;-83
2022/06/30 10:46:04;;;;;;;11.32;11.02;;;34.60;99.90;;;;;;5060808;28;20237;-83
2022/06/30 10:48:53;;;;;;;11.20;10.90;;;33.80;99.90;;;;;;5060347;28;20257;-83
2022/06/30 10:51:21;;;;;;;11.10;10.80;;;33.50;99.90;;;;;;5060747;28;20261;-83
2022/06/30 10:53:55;;;;;;;11.70;11.30;;;33.10;99.90;;;;;;5060864;28;20241;-83
2022/06/30 10:56:25;;;;;;;11.70;11.30;;;32.90;99.90;;;;;;5063435;28;20231;-83
2022/06/30 10:59:13;;;;;;;12.00;11.60;;;33.00;99.90;;;;;;5071391;28;20245;-83
2022/06/30 11:02:25;;;;;;;11.55;11.15;;;33.20;99.90;;;;;;5073315;28;20237;-82
2022/06/30 11:05:23;;;;;;;11.80;11.40;;;33.30;99.90;;;;;;5071261;28;20317;-83
2022/06/30 11:07:51;;;;;;;12.00;11.60;;;33.80;99.90;;;;;;5062962;28;20285;-83
2022/06/30 11:10:20;;;;;;;11.88;11.48;;;34.10;99.90;;;;;;5087952;22;20264;-80
2022/06/30 11:13:01;;;;;;;11.85;11.45;;;34.40;99.90;;;;;;5079638;28;20236;-80
2022/06/30 11:15:55;;;;;;;11.23;10.93;;;34.30;99.90;;;;;;5078881;28;20298;-81
2022/06/30 11:18:25;;;;;;;11.50;11.10;;;33.90;99.90;;;;;;5079893;28;20258;-80
2022/06/30 11:20:55;;;;;;;11.73;11.32;;;33.70;99.90;;;;;;5069389;28;20322;-80
2022/06/30 11:23:23;;;;;;;11.30;11.00;;;33.90;99.90;;;;;;5059309;28;20234;-80
2022/06/30 11:28:41;;;;;;;11.50;11.10;;;34.20;99.90;;;;;;5059404;28;20215;-80
2022/06/30 11:31:31;;;;;;;11.70;11.30;;;34.40;99.90;;;;;;5059710;28;20307;-80
2022/06/30 11:34:06;;;;;;;11.25;10.95;;;34.00;99.90;;;;;;5062332;28;20330;-81
2022/06/30 11:36:35;;;;;;;11.25;10.95;;;33.50;99.90;;;;;;5064646;28;20282;-80
2022/06/30 11:39:07;;;;;;;11.40;11.10;;;33.10;99.90;;;;;;5076108;28;20258;-80
2022/06/30 11:44:23;;;;;;;11.20;10.90;;;32.80;99.90;;;;;;5070497;28;20246;-81
2022/06/30 11:46:56;;;;;;;11.18;10.88;;;33.10;99.90;;;;;;5063043;28;20314;-81
2022/06/30 11:49:28;;;;;;;10.93;10.63;;;33.40;99.90;;;;;;5063161;28;20261;-81
2022/06/30 11:51:57;;;;;;;11.10;10.80;;;33.10;99.90;;;;;;5062476;28;20238;-80
2022/06/30 11:54:28;;;;;;;11.20;10.90;;;32.80;99.90;;;;;;5064339;28;20241;-81
2022/06/30 11:57:00;;;;;;;11.65;11.25;;;32.40;99.90;;;;;;5063470;28;20238;-80
2022/06/30 11:59:27;;;;;;;11.60;11.25;;;32.00;99.90;;;;;;5063258;28;20234;-80
2022/06/30 12:02:06;;;;;;;11.38;11.07;;;31.80;99.90;;;;;;5073253;28;20310;-80
2022/06/30 12:04:41;;;;;;;11.60;11.20;;;32.20;99.90;;;;;;5065257;28;20287;-80
2022/06/30 12:07:10;;;;;;;11.15;10.85;;;33.10;99.90;;;;;;5064940;28;20262;-80
2022/06/30 12:09:37;;;;;;;11.38;11.07;;;33.80;99.90;;;;;;5065547;28;20264;-81
2022/06/30 12:12:08;;;;;;;11.65;11.25;;;34.20;99.90;;;;;;5064730;28;20262;-81
2022/06/30 12:14:39;;;;;;;11.43;11.10;;;34.60;99.90;;;;;;5062568;28;20257;-81
2022/06/30 12:17:08;;;;;;;11.20;10.90;;;34.80;99.90;;;;;;5062386;28;20259;-81
2022/06/30 12:19:38;;;;;;;11.10;10.80;;;34.80;99.90;;;;;;5061181;28;20234;-80
2022/06/30 12:22:08;;;;;;;11.52;11.13;;;34.50;99.90;;;;;;5061949;28;20241;-81
2022/06/30 12:24:37;;;;;;;11.30;11.00;;;34.50;99.90;;;;;;5062095;28;20317;-81
2022/06/30 12:27:06;;;;;;;11.95;11.55;;;34.70;99.90;;;;;;5061935;28;20318;-81
2022/06/30 12:29:33;;;;;;;11.25;10.95;;;34.90;99.90;;;;;;5061399;28;20317;-80
2022/06/30 12:32:03;;;;;;;11.00;10.70;;;35.60;99.90;;;;;;5061470;28;20258;-81
2022/06/30 12:34:32;;;;;;;10.95;10.65;;;36.00;99.90;;;;;;5060880;28;20239;-81
2022/06/30 12:37:04;;;;;;;10.90;10.60;;;35.80;99.90;;;;;;5061895;28;20255;-81
2022/06/30 12:39:32;;;;;;;10.88;10.57;;;35.40;99.90;;;;;;5063400;28;20269;-81
2022/06/30 12:42:07;;;;;;;11.18;10.88;;;35.20;99.90;;;;;;5062781;28;20231;-81
2022/06/30 12:44:36;;;;;;;11.18;10.88;;;34.80;99.90;;;;;;5061009;28;20277;-81
2022/06/30 12:47:07;;;;;;;11.20;10.90;;;34.50;99.90;;;;;;5061118;28;20223;-81
2022/06/30 12:49:35;;;;;;;10.88;10.57;;;34.20;99.90;;;;;;5061543;28;20230;-80
2022/06/30 12:52:14;;;;;;;11.05;10.75;;;34.20;99.90;;;;;;5061910;28;20235;-81
2022/06/30 12:54:53;;;;;;;11.30;11.00;;;34.40;99.90;;;;;;5061178;28;20241;-81
2022/06/30 12:57:20;;;;;;;11.30;11.00;;;34.80;99.90;;;;;;5061220;28;20238;-82
2022/06/30 12:59:51;;;;;;;11.20;10.90;;;35.00;99.90;;;;;;5060954;28;20242;-82
2022/06/30 13:02:20;;;;;;;11.35;11.00;;;34.60;99.90;;;;;;5060794;28;20270;-81
2022/06/30 13:04:55;;;;;;;11.10;10.80;;;34.10;99.90;;;;;;5057325;28;20294;-79
2022/06/30 13:07:24;;;;;;;11.40;11.00;;;34.20;99.90;;;;;;5057300;28;20229;-79
2022/06/30 13:09:51;;;;;;;11.52;11.13;;;34.60;99.90;;;;;;5058103;28;20233;-81
2022/06/30 13:12:19;;;;;;;11.48;11.07;;;35.10;99.90;;;;;;5060361;28;20282;-82
2022/06/30 13:14:48;;;;;;;11.40;11.00;;;35.20;99.90;;;;;;5060415;28;20240;-82